ePrivacy and GPDR Cookie Consent by Cookie Consent
EmailTwitter


Observations de surface / France / LFBO (07630)

Régions: Québec | Canada | États-Unis | Europe | France | UK | Ailleurs
Station
Affichage
Infos & localisation pour LFBO (07630) | Aide pour décoder les METARs

Observations prises le 2021-10-25 à 23H00 UTC à TOULOUSE/BLAGNAC, FR (LFBO)

Etat du ciel: quelques nuages.

Température: 10.0 Celsius

Point de rosée: 8.0 Celsius

Humidité relative: 87%

Vents: Sud à 9 km/h ou 5 noeuds.

Pression au niveau moyen de la mer: 102.40 kilopascals.

Visibilité horizontale: 6.21 milles terrestres ou 9.94 kilomètres.

Observation METAR:

LFBO 252300Z AUTO 19005KT 150V210 9999 FEW008 10/08 Q1024 NOSIG=